createdAt,value
2019-04-29T00:01:19.801Z,12.96
2019-04-29T00:21:29.236Z,11.50
2019-04-29T00:41:40.990Z,10.52
2019-04-29T01:01:40.367Z,11.71
2019-04-29T01:21:50.012Z,13.20
2019-04-29T01:42:01.691Z,13.41
2019-04-29T02:02:03.358Z,12.70
2019-04-29T02:22:05.003Z,14.05
2019-04-29T02:42:04.454Z,14.09
2019-04-29T03:02:13.876Z,13.67
2019-04-29T03:22:23.189Z,14.25
2019-04-29T03:42:33.549Z,14.15
2019-04-29T04:02:35.158Z,13.01
2019-04-29T04:22:34.516Z,14.80
2019-04-29T04:42:43.994Z,16.17
2019-04-29T05:02:53.528Z,14.23
2019-04-29T05:23:02.968Z,13.06
2019-04-29T05:43:12.424Z,13.87
2019-04-29T06:03:21.790Z,12.85
2019-04-29T06:23:31.247Z,13.16
2019-04-29T06:43:40.643Z,12.37
2019-04-29T07:03:50.066Z,11.42
2019-04-29T07:23:59.421Z,10.83
2019-04-29T07:44:13.783Z,9.38
2019-04-29T08:04:12.576Z,9.96
2019-04-29T08:24:15.877Z,8.20
2019-04-29T08:44:23.547Z,9.46
2019-04-29T09:04:23.058Z,10.11
2019-04-29T09:24:32.448Z,10.03
2019-04-29T09:44:44.889Z,8.49
2019-04-29T10:04:56.648Z,9.60
2019-04-29T10:24:59.930Z,6.09
2019-04-29T10:45:11.646Z,8.10
2019-04-29T11:05:11.840Z,6.38
2019-04-29T11:25:20.184Z,7.27
2019-04-29T11:45:33.917Z,8.39
2019-04-29T12:05:33.350Z,7.03
2019-04-29T12:25:32.723Z,7.22
2019-04-29T12:45:42.290Z,8.67
2019-04-29T13:05:58.437Z,6.29
2019-04-29T13:26:00.901Z,8.28
2019-04-29T13:46:10.499Z,9.17
2019-04-29T14:06:22.106Z,8.04
2019-04-29T14:26:21.545Z,7.27
2019-04-29T14:46:31.025Z,7.39
2019-04-29T15:06:40.474Z,6.86
2019-04-29T15:26:49.834Z,7.92
2019-04-29T15:46:59.193Z,8.17
2019-04-29T16:07:07.255Z,8.82
2019-04-29T16:27:16.811Z,5.85
2019-04-29T16:47:26.228Z,7.52
2019-04-29T17:07:35.945Z,5.93
2019-04-29T17:27:45.502Z,7.36
2019-04-29T17:47:58.135Z,7.65
2019-04-29T18:07:57.763Z,8.78
2019-04-29T18:28:07.124Z,10.56
2019-04-29T18:48:26.855Z,11.74
2019-04-29T19:08:26.608Z,10.19
2019-04-29T19:28:34.651Z,9.76
2019-04-29T19:48:45.148Z,13.80
2019-04-29T20:08:53.923Z,10.88
2019-04-29T20:28:46.744Z,10.88
2019-04-29T20:48:50.020Z,11.85
2019-04-29T21:08:55.199Z,14.08
2019-04-29T21:29:05.488Z,15.88
2019-04-29T21:49:15.683Z,13.76
2019-04-29T22:09:15.919Z,14.87
2019-04-29T22:29:23.987Z,13.39
2019-04-29T22:49:33.511Z,14.48
2019-04-29T23:09:46.376Z,11.40
2019-04-29T23:29:51.830Z,11.20
2019-04-29T23:50:01.155Z,11.66
